sensor_id;sensor_type;location;lat;lon;timestamp;temperature;humidity
25568;DHT22;13455;51.480;7.594;2022-07-29T00:01:58;19.20;91.00
25568;DHT22;13455;51.480;7.594;2022-07-29T00:04:24;19.20;91.20
25568;DHT22;13455;51.480;7.594;2022-07-29T00:06:50;19.10;91.30
25568;DHT22;13455;51.480;7.594;2022-07-29T00:09:15;19.70;91.70
25568;DHT22;13455;51.480;7.594;2022-07-29T00:11:41;19.10;91.80
25568;DHT22;13455;51.480;7.594;2022-07-29T00:14:07;19.10;92.30
25568;DHT22;13455;51.480;7.594;2022-07-29T00:16:33;18.90;93.70
25568;DHT22;13455;51.480;7.594;2022-07-29T00:18:59;19.10;95.30
25568;DHT22;13455;51.480;7.594;2022-07-29T02:10:47;18.60;99.90
25568;DHT22;13455;51.480;7.594;2022-07-29T02:15:42;18.50;99.90
25568;DHT22;13455;51.480;7.594;2022-07-29T02:18:13;18.30;99.90
25568;DHT22;13455;51.480;7.594;2022-07-29T03:01:01;17.90;99.90
25568;DHT22;13455;51.480;7.594;2022-07-29T03:03:32;17.80;99.90
25568;DHT22;13455;51.480;7.594;2022-07-29T03:06:01;17.80;99.90
25568;DHT22;13455;51.480;7.594;2022-07-29T03:08:28;17.80;99.90
25568;DHT22;13455;51.480;7.594;2022-07-29T03:10:55;17.70;99.90
25568;DHT22;13455;51.480;7.594;2022-07-29T03:13:21;17.70;99.90
25568;DHT22;13455;51.480;7.594;2022-07-29T03:15:47;17.60;99.90
25568;DHT22;13455;51.480;7.594;2022-07-29T03:18:14;17.60;99.90
25568;DHT22;13455;51.480;7.594;2022-07-29T03:20:40;17.60;99.90
25568;DHT22;13455;51.480;7.594;2022-07-29T03:23:08;17.60;99.90
25568;DHT22;13455;51.480;7.594;2022-07-29T03:25:33;17.60;99.90
25568;DHT22;13455;51.480;7.594;2022-07-29T03:27:59;17.60;99.90
25568;DHT22;13455;51.480;7.594;2022-07-29T03:30:25;17.60;99.90
25568;DHT22;13455;51.480;7.594;2022-07-29T03:32:51;17.60;99.90
25568;DHT22;13455;51.480;7.594;2022-07-29T04:09:38;17.50;99.90
25568;DHT22;13455;51.480;7.594;2022-07-29T04:12:04;17.50;99.90
25568;DHT22;13455;51.480;7.594;2022-07-29T04:14:32;17.40;99.90
25568;DHT22;13455;51.480;7.594;2022-07-29T04:16:58;17.40;99.90
25568;DHT22;13455;51.480;7.594;2022-07-29T04:19:24;17.40;99.90
25568;DHT22;13455;51.480;7.594;2022-07-29T04:21:49;17.30;99.90
25568;DHT22;13455;51.480;7.594;2022-07-29T04:24:15;17.60;99.90
25568;DHT22;13455;51.480;7.594;2022-07-29T04:26:41;17.70;99.90
25568;DHT22;13455;51.480;7.594;2022-07-29T04:29:07;17.50;99.90
25568;DHT22;13455;51.480;7.594;2022-07-29T04:31:33;17.40;99.90
25568;DHT22;13455;51.480;7.594;2022-07-29T04:33:58;17.30;99.90
25568;DHT22;13455;51.480;7.594;2022-07-29T04:53:28;17.40;99.90
25568;DHT22;13455;51.480;7.594;2022-07-29T05:08:07;17.20;99.90
25568;DHT22;13455;51.480;7.594;2022-07-29T05:10:33;17.20;99.90
25568;DHT22;13455;51.480;7.594;2022-07-29T05:13:04;17.30;99.90
25568;DHT22;13455;51.480;7.594;2022-07-29T05:15:30;17.30;99.90
25568;DHT22;13455;51.480;7.594;2022-07-29T05:17:56;17.30;99.90
25568;DHT22;13455;51.480;7.594;2022-07-29T05:20:22;17.10;99.90
25568;DHT22;13455;51.480;7.594;2022-07-29T05:22:52;17.00;99.90
25568;DHT22;13455;51.480;7.594;2022-07-29T05:25:17;17.10;99.90
25568;DHT22;13455;51.480;7.594;2022-07-29T05:27:43;17.10;99.90
25568;DHT22;13455;51.480;7.594;2022-07-29T05:30:09;17.60;99.90
25568;DHT22;13455;51.480;7.594;2022-07-29T05:32:35;17.30;99.90
25568;DHT22;13455;51.480;7.594;2022-07-29T05:35:00;17.20;99.90
25568;DHT22;13455;51.480;7.594;2022-07-29T05:37:26;17.30;99.90
25568;DHT22;13455;51.480;7.594;2022-07-29T05:39:52;17.00;99.90
25568;DHT22;13455;51.480;7.594;2022-07-29T05:42:17;17.40;99.90
25568;DHT22;13455;51.480;7.594;2022-07-29T05:44:43;17.20;99.90
25568;DHT22;13455;51.480;7.594;2022-07-29T05:47:09;17.50;99.90
25568;DHT22;13455;51.480;7.594;2022-07-29T05:49:34;17.60;99.90
25568;DHT22;13455;51.480;7.594;2022-07-29T05:52:00;17.30;99.90
25568;DHT22;13455;51.480;7.594;2022-07-29T05:54:26;17.30;99.90
25568;DHT22;13455;51.480;7.594;2022-07-29T05:56:51;17.50;99.90
25568;DHT22;13455;51.480;7.594;2022-07-29T05:59:17;17.40;99.90
25568;DHT22;13455;51.480;7.594;2022-07-29T06:01:43;17.50;99.90
25568;DHT22;13455;51.480;7.594;2022-07-29T06:04:08;17.60;99.90
25568;DHT22;13455;51.480;7.594;2022-07-29T06:06:34;17.80;99.90
25568;DHT22;13455;51.480;7.594;2022-07-29T06:09:01;17.80;99.90
25568;DHT22;13455;51.480;7.594;2022-07-29T06:11:26;17.80;99.90
25568;DHT22;13455;51.480;7.594;2022-07-29T06:13:52;18.10;99.90
25568;DHT22;13455;51.480;7.594;2022-07-29T06:16:18;17.90;99.90
25568;DHT22;13455;51.480;7.594;2022-07-29T06:18:44;18.10;99.90
25568;DHT22;13455;51.480;7.594;2022-07-29T06:21:10;18.20;99.90
25568;DHT22;13455;51.480;7.594;2022-07-29T06:23:37;18.20;99.90
25568;DHT22;13455;51.480;7.594;2022-07-29T06:26:03;18.30;99.90
25568;DHT22;13455;51.480;7.594;2022-07-29T06:28:29;18.70;99.90
25568;DHT22;13455;51.480;7.594;2022-07-29T06:30:54;18.70;99.90
25568;DHT22;13455;51.480;7.594;2022-07-29T06:33:20;18.60;99.90
25568;DHT22;13455;51.480;7.594;2022-07-29T06:35:46;18.70;99.90
25568;DHT22;13455;51.480;7.594;2022-07-29T06:38:15;18.70;99.90
25568;DHT22;13455;51.480;7.594;2022-07-29T06:40:42;18.70;99.90
25568;DHT22;13455;51.480;7.594;2022-07-29T06:43:34;18.80;99.90
25568;DHT22;13455;51.480;7.594;2022-07-29T06:46:04;18.90;99.90
25568;DHT22;13455;51.480;7.594;2022-07-29T06:48:30;19.00;99.90
25568;DHT22;13455;51.480;7.594;2022-07-29T06:50:56;19.10;99.90
25568;DHT22;13455;51.480;7.594;2022-07-29T06:53:22;19.10;99.90
25568;DHT22;13455;51.480;7.594;2022-07-29T06:55:48;19.20;99.90
25568;DHT22;13455;51.480;7.594;2022-07-29T07:05:33;19.60;99.90
25568;DHT22;13455;51.480;7.594;2022-07-29T07:07:59;19.80;99.90
25568;DHT22;13455;51.480;7.594;2022-07-29T07:15:17;20.10;99.90
25568;DHT22;13455;51.480;7.594;2022-07-29T07:17:47;20.00;99.90
25568;DHT22;13455;51.480;7.594;2022-07-29T07:20:14;20.10;99.90
25568;DHT22;13455;51.480;7.594;2022-07-29T07:22:39;20.10;99.90
25568;DHT22;13455;51.480;7.594;2022-07-29T07:25:05;20.20;99.90
25568;DHT22;13455;51.480;7.594;2022-07-29T07:27:31;20.30;99.90
25568;DHT22;13455;51.480;7.594;2022-07-29T07:29:57;20.40;99.90
25568;DHT22;13455;51.480;7.594;2022-07-29T07:34:49;20.70;99.90
25568;DHT22;13455;51.480;7.594;2022-07-29T07:39:41;20.80;99.90
25568;DHT22;13455;51.480;7.594;2022-07-29T07:42:07;21.20;99.90
25568;DHT22;13455;51.480;7.594;2022-07-29T07:54:19;21.70;99.90
25568;DHT22;13455;51.480;7.594;2022-07-29T07:56:45;21.80;99.90
25568;DHT22;13455;51.480;7.594;2022-07-29T07:59:11;21.70;99.90
25568;DHT22;13455;51.480;7.594;2022-07-29T08:01:36;22.00;99.90
25568;DHT22;13455;51.480;7.594;2022-07-29T08:04:02;22.10;99.90
25568;DHT22;13455;51.480;7.594;2022-07-29T08:16:12;22.90;98.80
25568;DHT22;13455;51.480;7.594;2022-07-29T08:18:41;23.00;98.90
25568;DHT22;13455;51.480;7.594;2022-07-29T08:21:07;23.10;98.20
25568;DHT22;13455;51.480;7.594;2022-07-29T08:23:33;23.10;97.60
25568;DHT22;13455;51.480;7.594;2022-07-29T08:26:08;23.20;97.20
25568;DHT22;13455;51.480;7.594;2022-07-29T08:28:40;23.20;97.10
25568;DHT22;13455;51.480;7.594;2022-07-29T08:31:06;23.40;99.90
25568;DHT22;13455;51.480;7.594;2022-07-29T08:33:32;23.40;96.30
25568;DHT22;13455;51.480;7.594;2022-07-29T08:35:59;23.60;96.20
25568;DHT22;13455;51.480;7.594;2022-07-29T08:38:24;23.80;96.80
25568;DHT22;13455;51.480;7.594;2022-07-29T08:40:52;23.90;96.90
25568;DHT22;13455;51.480;7.594;2022-07-29T08:48:19;24.30;93.20
25568;DHT22;13455;51.480;7.594;2022-07-29T08:58:08;25.00;90.50
25568;DHT22;13455;51.480;7.594;2022-07-29T09:00:36;25.00;90.70
25568;DHT22;13455;51.480;7.594;2022-07-29T09:03:03;25.20;91.00
25568;DHT22;13455;51.480;7.594;2022-07-29T09:17:44;26.10;83.10
25568;DHT22;13455;51.480;7.594;2022-07-29T09:20:15;26.10;83.80
25568;DHT22;13455;51.480;7.594;2022-07-29T09:22:41;26.20;83.70
25568;DHT22;13455;51.480;7.594;2022-07-29T09:25:07;26.40;83.20
25568;DHT22;13455;51.480;7.594;2022-07-29T09:27:33;26.60;83.00
25568;DHT22;13455;51.480;7.594;2022-07-29T09:30:05;26.70;82.90
25568;DHT22;13455;51.480;7.594;2022-07-29T09:52:48;27.30;73.40
25568;DHT22;13455;51.480;7.594;2022-07-29T09:55:14;27.20;74.10
25568;DHT22;13455;51.480;7.594;2022-07-29T09:57:41;27.20;75.60
25568;DHT22;13455;51.480;7.594;2022-07-29T10:00:10;27.40;75.90
25568;DHT22;13455;51.480;7.594;2022-07-29T10:05:05;27.70;74.20
25568;DHT22;13455;51.480;7.594;2022-07-29T10:07:55;27.90;99.90
25568;DHT22;13455;51.480;7.594;2022-07-29T10:25:10;27.50;69.50
25568;DHT22;13455;51.480;7.594;2022-07-29T10:27:36;27.60;90.50
25568;DHT22;13455;51.480;7.594;2022-07-29T10:42:29;26.80;71.70
25568;DHT22;13455;51.480;7.594;2022-07-29T10:44:55;27.00;72.30
25568;DHT22;13455;51.480;7.594;2022-07-29T10:50:03;26.50;72.40
25568;DHT22;13455;51.480;7.594;2022-07-29T11:08:24;25.70;80.10
25568;DHT22;13455;51.480;7.594;2022-07-29T11:10:52;25.60;83.30
25568;DHT22;13455;51.480;7.594;2022-07-29T12:01:28;26.20;88.40
25568;DHT22;13455;51.480;7.594;2022-07-29T12:48:33;25.90;86.00
25568;DHT22;13455;51.480;7.594;2022-07-29T14:14:30;26.50;91.10
25568;DHT22;13455;51.480;7.594;2022-07-29T14:24:16;28.30;99.90
25568;DHT22;13455;51.480;7.594;2022-07-29T14:26:41;27.10;99.10
25568;DHT22;13455;51.480;7.594;2022-07-29T14:29:07;27.10;89.80
25568;DHT22;13455;51.480;7.594;2022-07-29T14:36:26;27.80;88.30
25568;DHT22;13455;51.480;7.594;2022-07-29T14:38:55;27.90;90.90
25568;DHT22;13455;51.480;7.594;2022-07-29T14:58:25;29.20;80.40
25568;DHT22;13455;51.480;7.594;2022-07-29T15:08:09;29.80;75.00
25568;DHT22;13455;51.480;7.594;2022-07-29T15:13:01;30.20;76.40
25568;DHT22;13455;51.480;7.594;2022-07-29T15:15:27;30.90;99.90
25568;DHT22;13455;51.480;7.594;2022-07-29T15:42:14;31.40;64.10
25568;DHT22;13455;51.480;7.594;2022-07-29T15:44:40;31.30;63.70
25568;DHT22;13455;51.480;7.594;2022-07-29T16:28:39;30.70;61.20
25568;DHT22;13455;51.480;7.594;2022-07-29T16:33:31;30.40;65.90
25568;DHT22;13455;51.480;7.594;2022-07-29T16:35:57;30.40;66.40
25568;DHT22;13455;51.480;7.594;2022-07-29T16:40:51;31.50;63.10
25568;DHT22;13455;51.480;7.594;2022-07-29T16:43:17;31.50;63.80
25568;DHT22;13455;51.480;7.594;2022-07-29T16:48:09;31.90;61.00
25568;DHT22;13455;51.480;7.594;2022-07-29T16:53:00;32.10;58.80
25568;DHT22;13455;51.480;7.594;2022-07-29T16:55:26;32.20;75.60
25568;DHT22;13455;51.480;7.594;2022-07-29T16:57:51;32.10;87.20
25568;DHT22;13455;51.480;7.594;2022-07-29T17:05:10;30.70;59.00
25568;DHT22;13455;51.480;7.594;2022-07-29T17:07:37;30.60;59.40
25568;DHT22;13455;51.480;7.594;2022-07-29T17:10:03;29.90;60.20
25568;DHT22;13455;51.480;7.594;2022-07-29T17:12:30;29.60;61.00
25568;DHT22;13455;51.480;7.594;2022-07-29T17:17:22;29.40;62.90
25568;DHT22;13455;51.480;7.594;2022-07-29T17:22:14;29.20;63.90
25568;DHT22;13455;51.480;7.594;2022-07-29T17:27:06;28.90;64.00
25568;DHT22;13455;51.480;7.594;2022-07-29T17:29:31;28.60;65.00
25568;DHT22;13455;51.480;7.594;2022-07-29T17:34:25;28.40;65.50
25568;DHT22;13455;51.480;7.594;2022-07-29T17:44:11;28.10;69.10
25568;DHT22;13455;51.480;7.594;2022-07-29T17:49:05;27.90;70.10
25568;DHT22;13455;51.480;7.594;2022-07-29T17:51:31;27.70;70.90
25568;DHT22;13455;51.480;7.594;2022-07-29T17:58:50;27.40;71.90
25568;DHT22;13455;51.480;7.594;2022-07-29T18:13:28;26.80;72.90
25568;DHT22;13455;51.480;7.594;2022-07-29T18:35:25;25.90;99.90
25568;DHT22;13455;51.480;7.594;2022-07-29T18:37:50;26.20;99.90
25568;DHT22;13455;51.480;7.594;2022-07-29T18:40:19;26.30;78.80
25568;DHT22;13455;51.480;7.594;2022-07-29T18:42:46;26.30;82.80
25568;DHT22;13455;51.480;7.594;2022-07-29T18:50:05;25.40;77.30
25568;DHT22;13455;51.480;7.594;2022-07-29T18:52:31;25.40;78.00
25568;DHT22;13455;51.480;7.594;2022-07-29T18:54:57;25.30;78.60
25568;DHT22;13455;51.480;7.594;2022-07-29T18:57:23;25.20;78.80
25568;DHT22;13455;51.480;7.594;2022-07-29T18:59:49;25.40;87.90
25568;DHT22;13455;51.480;7.594;2022-07-29T19:02:16;25.10;89.80
25568;DHT22;13455;51.480;7.594;2022-07-29T19:14:27;24.80;79.00
25568;DHT22;13455;51.480;7.594;2022-07-29T19:16:53;24.70;79.60
25568;DHT22;13455;51.480;7.594;2022-07-29T19:19:18;24.60;80.50
25568;DHT22;13455;51.480;7.594;2022-07-29T19:29:08;24.40;99.90
25568;DHT22;13455;51.480;7.594;2022-07-29T19:31:34;24.40;84.50
25568;DHT22;13455;51.480;7.594;2022-07-29T19:33:59;24.50;92.20
25568;DHT22;13455;51.480;7.594;2022-07-29T20:08:05;23.50;94.60
25568;DHT22;13455;51.480;7.594;2022-07-29T20:54:26;22.20;93.30
25568;DHT22;13455;51.480;7.594;2022-07-29T21:16:20;21.50;96.70
25568;DHT22;13455;51.480;7.594;2022-07-29T21:18:50;21.40;97.40
25568;DHT22;13455;51.480;7.594;2022-07-29T21:21:16;21.30;97.90
25568;DHT22;13455;51.480;7.594;2022-07-29T21:38:35;20.90;99.90
25568;DHT22;13455;51.480;7.594;2022-07-29T21:41:02;20.90;99.90
25568;DHT22;13455;51.480;7.594;2022-07-29T21:43:28;20.80;99.90
25568;DHT22;13455;51.480;7.594;2022-07-29T21:45:55;20.70;99.90
25568;DHT22;13455;51.480;7.594;2022-07-29T21:48:22;20.70;99.90
25568;DHT22;13455;51.480;7.594;2022-07-29T21:50:48;20.70;99.90
25568;DHT22;13455;51.480;7.594;2022-07-29T21:53:14;20.70;99.90
25568;DHT22;13455;51.480;7.594;2022-07-29T21:55:40;20.70;99.90
25568;DHT22;13455;51.480;7.594;2022-07-29T21:58:07;20.70;99.90
25568;DHT22;13455;51.480;7.594;2022-07-29T22:00:33;20.60;99.90
25568;DHT22;13455;51.480;7.594;2022-07-29T22:05:27;20.60;99.90
25568;DHT22;13455;51.480;7.594;2022-07-29T22:07:53;20.60;99.90
25568;DHT22;13455;51.480;7.594;2022-07-29T22:10:19;20.50;99.90
25568;DHT22;13455;51.480;7.594;2022-07-29T22:12:44;20.50;99.90
25568;DHT22;13455;51.480;7.594;2022-07-29T22:17:37;20.40;99.90
25568;DHT22;13455;51.480;7.594;2022-07-29T22:20:03;20.40;99.90
25568;DHT22;13455;51.480;7.594;2022-07-29T22:22:29;20.20;99.90
25568;DHT22;13455;51.480;7.594;2022-07-29T22:24:54;20.40;99.90
25568;DHT22;13455;51.480;7.594;2022-07-29T22:27:20;20.40;99.90
25568;DHT22;13455;51.480;7.594;2022-07-29T22:29:46;20.40;99.90
25568;DHT22;13455;51.480;7.594;2022-07-29T22:32:12;20.40;99.90
25568;DHT22;13455;51.480;7.594;2022-07-29T22:34:38;20.40;99.90
25568;DHT22;13455;51.480;7.594;2022-07-29T22:37:03;20.40;99.90
25568;DHT22;13455;51.480;7.594;2022-07-29T22:39:29;20.30;99.90
25568;DHT22;13455;51.480;7.594;2022-07-29T22:41:55;20.40;99.90
25568;DHT22;13455;51.480;7.594;2022-07-29T22:44:20;20.90;99.90
25568;DHT22;13455;51.480;7.594;2022-07-29T23:11:07;20.50;99.90
25568;DHT22;13455;51.480;7.594;2022-07-29T23:13:32;20.40;99.90
25568;DHT22;13455;51.480;7.594;2022-07-29T23:15:59;20.30;99.90
25568;DHT22;13455;51.480;7.594;2022-07-29T23:18:25;20.40;99.90
25568;DHT22;13455;51.480;7.594;2022-07-29T23:20:50;20.30;99.90
25568;DHT22;13455;51.480;7.594;2022-07-29T23:23:16;20.30;99.90
25568;DHT22;13455;51.480;7.594;2022-07-29T23:30:34;20.30;99.90
25568;DHT22;13455;51.480;7.594;2022-07-29T23:33:00;20.30;99.90
25568;DHT22;13455;51.480;7.594;2022-07-29T23:35:30;20.30;99.90
25568;DHT22;13455;51.480;7.594;2022-07-29T23:37:56;20.20;99.90
25568;DHT22;13455;51.480;7.594;2022-07-29T23:40:22;20.20;99.90
